Terminal Aerodrome Forecast
Issued by NWS Sterling, VA

Home | Current Version | Previous Version | Text Only | Print | Product List | Glossary On
Versions: 1 2 3 4 5 6 7 8 9 10 11 12 13 14
000
FTUS41 KLWX 220439 AAA
TAFCHO
TAF AMD
KCHO 220439Z 2205/2224 VRB03KT P6SM -SHRA BKN100 BKN200
     FM221000 VRB03KT P6SM -SHRA OVC080
     FM221600 VRB03KT P6SM OVC070=

USA.gov is the U.S. government's official web portal to all federal, state and local government web resources and services.